createdAt,value
2022-12-27T00:01:29.590Z,10.92
2022-12-27T00:05:32.367Z,10.53
2022-12-27T00:09:32.567Z,10.90
2022-12-27T00:13:32.673Z,10.52
2022-12-27T00:17:32.757Z,10.69
2022-12-27T00:21:36.754Z,10.73
2022-12-27T00:25:37.748Z,10.66
2022-12-27T00:29:37.885Z,10.77
2022-12-27T00:33:40.419Z,10.51
2022-12-27T00:37:43.087Z,10.31
2022-12-27T00:41:43.207Z,10.12
2022-12-27T00:45:43.965Z,10.15
2022-12-27T00:49:44.335Z,9.82
2022-12-27T00:53:48.443Z,9.88
2022-12-27T00:57:48.504Z,9.88
2022-12-27T01:01:48.776Z,9.62
2022-12-27T01:05:49.226Z,9.62
2022-12-27T01:09:51.903Z,9.52
2022-12-27T01:13:52.478Z,9.17
2022-12-27T01:17:52.555Z,9.00
2022-12-27T01:21:52.661Z,9.11
2022-12-27T01:26:03.752Z,9.09
2022-12-27T01:30:03.829Z,9.07
2022-12-27T01:34:04.433Z,8.70
2022-12-27T01:38:04.479Z,8.94
2022-12-27T01:42:20.149Z,9.02
2022-12-27T01:46:21.386Z,8.70
2022-12-27T01:50:35.060Z,8.56
2022-12-27T01:54:38.233Z,8.88
2022-12-27T01:58:46.064Z,8.44
2022-12-27T02:02:46.705Z,8.71
2022-12-27T02:06:48.384Z,8.47
2022-12-27T02:10:49.483Z,8.61
2022-12-27T02:14:52.908Z,8.68
2022-12-27T02:18:53.078Z,8.96
2022-12-27T02:24:06.930Z,8.16
2022-12-27T02:28:32.726Z,8.70
2022-12-27T02:32:41.564Z,8.62
2022-12-27T02:36:48.470Z,8.55
2022-12-27T02:41:03.903Z,8.22
2022-12-27T02:45:17.535Z,8.55
2022-12-27T02:49:45.748Z,8.70
2022-12-27T02:54:05.370Z,8.77
2022-12-27T02:58:32.656Z,8.49
2022-12-27T03:02:55.222Z,8.03
2022-12-27T03:07:29.491Z,8.08
2022-12-27T03:11:53.058Z,8.06
2022-12-27T03:16:12.072Z,8.00
2022-12-27T03:20:31.201Z,8.02
2022-12-27T03:24:53.694Z,8.19
2022-12-27T03:29:07.782Z,8.09
2022-12-27T03:33:16.779Z,8.05
2022-12-27T03:37:36.326Z,7.95
2022-12-27T03:42:05.175Z,7.67
2022-12-27T03:46:33.185Z,7.78
2022-12-27T03:50:46.467Z,7.76
2022-12-27T03:54:52.858Z,7.63
2022-12-27T03:58:57.903Z,7.59
2022-12-27T04:02:58.474Z,7.57
2022-12-27T04:06:59.164Z,7.38
2022-12-27T04:11:11.708Z,7.49
2022-12-27T04:15:27.664Z,7.61
2022-12-27T04:19:40.217Z,7.43
2022-12-27T04:23:52.887Z,7.40
2022-12-27T04:28:05.460Z,7.24
2022-12-27T04:32:21.202Z,7.01
2022-12-27T04:36:21.302Z,6.85
2022-12-27T04:40:34.014Z,6.80
2022-12-27T04:44:46.600Z,6.70
2022-12-27T04:49:01.913Z,6.76
2022-12-27T04:53:14.476Z,6.65
2022-12-27T04:57:15.020Z,6.82
2022-12-27T05:01:27.711Z,6.77
2022-12-27T05:05:30.753Z,6.59
2022-12-27T05:09:58.600Z,6.55
2022-12-27T05:14:04.850Z,5.71
2022-12-27T05:18:05.107Z,6.35
2022-12-27T05:22:20.265Z,6.28
2022-12-27T05:26:25.456Z,6.43
2022-12-27T05:30:25.491Z,6.65
2022-12-27T05:34:25.874Z,6.66
2022-12-27T05:38:28.740Z,6.50
2022-12-27T05:42:28.804Z,6.54
2022-12-27T05:46:29.224Z,6.58
2022-12-27T05:50:29.363Z,6.75
2022-12-27T05:54:45.570Z,6.91
2022-12-27T05:58:46.463Z,7.12
2022-12-27T06:02:46.749Z,7.30
2022-12-27T06:06:46.953Z,7.37
2022-12-27T06:10:49.884Z,7.46
2022-12-27T06:14:49.983Z,7.43
2022-12-27T06:18:50.275Z,7.30
2022-12-27T06:22:50.939Z,7.13
2022-12-27T06:26:53.615Z,6.95
2022-12-27T06:30:53.674Z,6.92
2022-12-27T06:34:53.822Z,6.93
2022-12-27T06:38:53.980Z,6.87
2022-12-27T06:42:56.752Z,7.13
2022-12-27T06:46:56.848Z,6.98
2022-12-27T06:50:57.620Z,6.84
2022-12-27T06:54:57.660Z,6.71
2022-12-27T06:59:00.365Z,6.55
2022-12-27T07:03:00.616Z,6.10
2022-12-27T07:07:00.802Z,6.41
2022-12-27T07:11:03.687Z,6.57
2022-12-27T07:15:07.347Z,6.60
2022-12-27T07:19:07.426Z,6.57
2022-12-27T07:23:07.544Z,6.48
2022-12-27T07:27:07.733Z,6.45
2022-12-27T07:31:14.164Z,6.41
2022-12-27T07:35:14.436Z,6.30
2022-12-27T07:39:15.397Z,6.38
2022-12-27T07:43:15.538Z,6.46
2022-12-27T07:47:18.216Z,6.46
2022-12-27T07:51:20.103Z,6.38
2022-12-27T07:55:20.447Z,6.59
2022-12-27T07:59:20.836Z,6.84
2022-12-27T08:03:23.696Z,7.37
2022-12-27T08:07:23.994Z,7.86
2022-12-27T08:11:26.650Z,8.35
2022-12-27T08:15:26.905Z,8.67
2022-12-27T08:19:29.622Z,9.27
2022-12-27T08:23:29.735Z,9.67
2022-12-27T08:27:29.797Z,9.90
2022-12-27T08:31:29.878Z,9.96
2022-12-27T08:35:52.315Z,9.91
2022-12-27T08:39:57.720Z,10.24
2022-12-27T08:44:01.652Z,10.36
2022-12-27T08:48:02.941Z,10.51
2022-12-27T08:52:05.721Z,10.75
2022-12-27T08:56:06.112Z,11.15
2022-12-27T09:00:08.532Z,11.46
2022-12-27T09:04:08.893Z,11.73
2022-12-27T09:08:12.060Z,11.86
2022-12-27T09:12:12.187Z,12.36
2022-12-27T09:16:14.563Z,12.51
2022-12-27T09:20:15.654Z,12.20
2022-12-27T09:24:18.620Z,11.90
2022-12-27T09:28:18.717Z,11.73
2022-12-27T09:32:18.855Z,11.81
2022-12-27T09:36:22.409Z,11.85
2022-12-27T09:40:25.212Z,12.03
2022-12-27T09:44:34.969Z,12.24
2022-12-27T09:48:41.407Z,11.98
2022-12-27T09:52:50.276Z,11.80
2022-12-27T09:57:18.929Z,12.26
2022-12-27T10:01:26.654Z,12.84
2022-12-27T10:05:35.569Z,12.56
2022-12-27T10:09:54.123Z,12.38
2022-12-27T10:14:04.044Z,11.61
2022-12-27T10:18:21.618Z,11.90
2022-12-27T10:22:36.435Z,12.79
2022-12-27T10:26:36.568Z,13.73
2022-12-27T10:30:39.411Z,12.59
2022-12-27T10:34:39.578Z,12.59
2022-12-27T10:38:41.185Z,12.63
2022-12-27T10:42:45.653Z,12.23
2022-12-27T10:46:55.851Z,12.34
2022-12-27T10:51:01.161Z,11.71
2022-12-27T10:55:01.562Z,11.78
2022-12-27T10:59:17.097Z,12.18
2022-12-27T11:03:22.757Z,12.22
2022-12-27T11:07:23.110Z,12.60
2022-12-27T11:11:25.960Z,12.70
2022-12-27T11:15:27.137Z,13.01
2022-12-27T11:19:30.866Z,13.86
2022-12-27T11:23:38.725Z,13.13
2022-12-27T11:27:40.389Z,12.93
2022-12-27T11:31:48.555Z,12.96
2022-12-27T11:35:56.492Z,13.23
2022-12-27T11:40:13.095Z,14.12
2022-12-27T11:44:22.560Z,14.07
2022-12-27T11:48:31.374Z,14.30
2022-12-27T11:53:04.713Z,14.45
2022-12-27T11:57:24.981Z,14.54
2022-12-27T12:01:57.984Z,14.25
2022-12-27T12:06:17.973Z,13.98
2022-12-27T12:10:47.186Z,13.48
2022-12-27T12:15:15.950Z,13.15
2022-12-27T12:19:48.447Z,13.00
2022-12-27T12:24:16.296Z,13.40
2022-12-27T12:29:00.421Z,13.59
2022-12-27T12:33:36.285Z,13.39
2022-12-27T12:38:06.119Z,14.19
2022-12-27T12:42:23.337Z,13.59
2022-12-27T12:46:37.161Z,13.66
2022-12-27T12:51:09.880Z,12.71
2022-12-27T12:55:53.517Z,12.82
2022-12-27T13:00:33.106Z,12.72
2022-12-27T13:05:02.993Z,12.46
2022-12-27T13:09:13.813Z,12.51
2022-12-27T13:13:25.887Z,12.54
2022-12-27T13:17:38.842Z,12.16
2022-12-27T13:22:05.816Z,12.06
2022-12-27T13:26:22.581Z,12.55
2022-12-27T13:30:26.509Z,12.45
2022-12-27T13:34:41.488Z,12.66
2022-12-27T13:39:10.660Z,12.15
2022-12-27T13:43:43.438Z,11.31
2022-12-27T13:48:05.563Z,11.36
2022-12-27T13:52:23.881Z,11.95
2022-12-27T14:01:17.610Z,12.83
2022-12-27T14:06:03.997Z,12.66
2022-12-27T14:10:21.327Z,12.16
2022-12-27T14:14:27.763Z,12.16
2022-12-27T14:18:56.978Z,12.13
2022-12-27T14:23:19.198Z,12.01
2022-12-27T14:28:24.900Z,11.78
2022-12-27T14:33:16.612Z,12.05
2022-12-27T14:37:50.657Z,11.92
2022-12-27T14:42:28.371Z,11.46
2022-12-27T14:47:08.399Z,11.41
2022-12-27T14:52:02.395Z,11.31
2022-12-27T14:56:21.256Z,11.12
2022-12-27T15:00:25.886Z,10.66
2022-12-27T15:04:57.866Z,10.81
2022-12-27T15:09:13.946Z,10.95
2022-12-27T15:13:19.759Z,11.09
2022-12-27T15:17:41.253Z,10.99
2022-12-27T15:22:08.593Z,11.22
2022-12-27T15:26:27.214Z,11.29
2022-12-27T15:30:41.899Z,11.19
2022-12-27T15:35:02.373Z,11.14
2022-12-27T15:39:03.322Z,11.17
2022-12-27T15:43:17.711Z,11.26
2022-12-27T15:47:49.752Z,11.24
2022-12-27T15:52:04.167Z,11.00
2022-12-27T15:56:51.324Z,11.04
2022-12-27T16:01:33.656Z,10.95
2022-12-27T16:05:52.833Z,10.94
2022-12-27T16:09:53.376Z,10.82
2022-12-27T16:14:14.536Z,10.96
2022-12-27T16:19:15.447Z,10.93
2022-12-27T16:23:16.125Z,10.78
2022-12-27T16:27:31.961Z,10.70
2022-12-27T16:31:39.083Z,10.49
2022-12-27T16:35:45.530Z,10.75
2022-12-27T16:40:22.517Z,10.82
2022-12-27T16:44:47.525Z,10.74
2022-12-27T16:49:30.789Z,10.48
2022-12-27T16:54:03.620Z,10.33
2022-12-27T16:58:26.755Z,10.14
2022-12-27T17:02:43.441Z,10.12
2022-12-27T17:06:59.516Z,10.03
2022-12-27T17:11:26.657Z,9.91
2022-12-27T17:15:28.654Z,10.06
2022-12-27T17:19:39.173Z,10.05
2022-12-27T17:23:46.878Z,9.77
2022-12-27T17:28:13.775Z,9.72
2022-12-27T17:32:33.237Z,10.15
2022-12-27T17:36:54.951Z,9.87
2022-12-27T17:41:15.137Z,10.01
2022-12-27T17:45:34.060Z,10.04
2022-12-27T17:49:35.897Z,9.81
2022-12-27T17:53:48.433Z,9.67
2022-12-27T17:57:57.912Z,9.64
2022-12-27T18:02:07.972Z,9.49
2022-12-27T18:06:09.542Z,9.33
2022-12-27T18:10:23.860Z,9.24
2022-12-27T18:14:24.521Z,9.16
2022-12-27T18:18:31.998Z,8.99
2022-12-27T18:22:32.193Z,8.95
2022-12-27T18:26:41.076Z,8.73
2022-12-27T18:30:46.419Z,8.48
2022-12-27T18:34:55.108Z,8.49
2022-12-27T18:39:01.767Z,8.45
2022-12-27T18:43:02.254Z,8.27
2022-12-27T18:47:06.652Z,8.10
2022-12-27T18:51:09.775Z,8.06
2022-12-27T18:55:21.357Z,8.22
2022-12-27T18:59:28.905Z,7.99
2022-12-27T19:03:32.773Z,7.78
2022-12-27T19:07:39.495Z,7.73
2022-12-27T19:11:41.190Z,7.48
2022-12-27T19:15:47.076Z,7.52
2022-12-27T19:19:52.880Z,7.33
2022-12-27T19:23:55.914Z,7.33
2022-12-27T19:28:07.284Z,7.38
2022-12-27T19:32:12.132Z,7.14
2022-12-27T19:36:12.947Z,6.87
2022-12-27T19:40:20.476Z,6.99
2022-12-27T19:44:21.143Z,6.83
2022-12-27T19:48:21.321Z,6.59
2022-12-27T19:52:24.741Z,6.64
2022-12-27T19:56:28.541Z,6.55
2022-12-27T20:00:28.936Z,6.34
2022-12-27T20:04:29.534Z,6.63
2022-12-27T20:08:33.924Z,6.50
2022-12-27T20:12:36.736Z,6.46
2022-12-27T20:16:37.035Z,6.38
2022-12-27T20:20:37.294Z,6.18
2022-12-27T20:24:38.030Z,5.95
2022-12-27T20:28:41.906Z,5.71
2022-12-27T20:32:42.180Z,5.56
2022-12-27T20:36:42.818Z,5.66
2022-12-27T20:40:43.279Z,5.67
2022-12-27T20:44:46.410Z,5.56
2022-12-27T20:48:49.890Z,5.56
2022-12-27T20:52:50.208Z,5.56
2022-12-27T20:56:50.434Z,5.59
2022-12-27T21:00:53.232Z,5.37
2022-12-27T21:04:53.428Z,5.36
2022-12-27T21:08:57.159Z,5.35
2022-12-27T21:12:58.876Z,5.39
2022-12-27T21:17:02.005Z,5.19
2022-12-27T21:21:06.697Z,5.07
2022-12-27T21:25:07.695Z,5.25
2022-12-27T21:29:12.298Z,5.15
2022-12-27T21:33:15.134Z,5.22
2022-12-27T21:37:15.707Z,5.18
2022-12-27T21:41:20.220Z,5.17
2022-12-27T21:45:20.816Z,5.07
2022-12-27T21:49:23.580Z,4.95
2022-12-27T21:53:24.491Z,4.79
2022-12-27T21:57:24.722Z,4.90
2022-12-27T22:01:27.461Z,5.00
2022-12-27T22:05:30.589Z,4.90
2022-12-27T22:09:31.034Z,4.95
2022-12-27T22:13:31.538Z,4.87
2022-12-27T22:17:31.769Z,4.79
2022-12-27T22:21:37.613Z,4.71
2022-12-27T22:25:37.805Z,4.58
2022-12-27T22:29:38.333Z,4.70
2022-12-27T22:33:40.871Z,4.70
2022-12-27T22:37:43.671Z,4.66
2022-12-27T22:41:43.807Z,4.73
2022-12-27T22:45:48.893Z,4.70
2022-12-27T22:49:52.142Z,4.65
2022-12-27T22:53:55.167Z,4.69
2022-12-27T22:57:55.483Z,4.71
2022-12-27T23:01:56.119Z,4.63
2022-12-27T23:06:01.404Z,4.44
2022-12-27T23:10:04.165Z,4.31
2022-12-27T23:14:07.528Z,4.20
2022-12-27T23:18:08.155Z,4.25
2022-12-27T23:22:09.138Z,4.47
2022-12-27T23:26:17.537Z,4.52
2022-12-27T23:30:18.140Z,4.65
2022-12-27T23:34:22.546Z,4.56
2022-12-27T23:38:27.354Z,4.31
2022-12-27T23:42:30.440Z,3.96
2022-12-27T23:46:33.608Z,4.26
2022-12-27T23:50:33.709Z,4.20
2022-12-27T23:54:34.187Z,4.19
2022-12-27T23:58:37.395Z,4.26
